createdAt,value
2018-12-01T00:02:28.470Z,7.00
2018-12-01T00:04:56.906Z,7.00
2018-12-01T00:07:25.366Z,7.00
2018-12-01T00:09:53.790Z,6.90
2018-12-01T00:12:22.238Z,6.90
2018-12-01T00:14:50.643Z,6.90
2018-12-01T00:17:19.087Z,6.80
2018-12-01T00:19:47.518Z,6.70
2018-12-01T00:22:15.960Z,6.70
2018-12-01T00:24:44.404Z,6.60
2018-12-01T00:27:12.876Z,6.50
2018-12-01T00:29:41.350Z,6.40
2018-12-01T00:32:09.883Z,6.40
2018-12-01T00:34:38.366Z,6.30
2018-12-01T00:37:06.853Z,6.30
2018-12-01T00:39:35.327Z,6.20
2018-12-01T00:42:03.794Z,6.20
2018-12-01T00:44:32.326Z,6.10
2018-12-01T00:47:00.854Z,6.10
2018-12-01T00:49:29.300Z,6.10
2018-12-01T00:51:57.730Z,6.10
2018-12-01T00:54:26.226Z,6.10
2018-12-01T00:56:54.658Z,6.10
2018-12-01T00:59:23.085Z,6.10
2018-12-01T01:01:51.570Z,6.10
2018-12-01T01:04:20.022Z,6.10
2018-12-01T01:06:48.458Z,6.10
2018-12-01T01:09:17.008Z,6.20
2018-12-01T01:11:45.457Z,6.20
2018-12-01T01:14:13.908Z,6.20
2018-12-01T01:16:42.366Z,6.30
2018-12-01T01:19:10.811Z,6.30
2018-12-01T01:21:39.802Z,6.30
2018-12-01T01:24:08.620Z,6.30
2018-12-01T01:26:37.156Z,6.30
2018-12-01T01:29:06.022Z,6.30
2018-12-01T01:31:34.854Z,6.30
2018-12-01T01:34:03.360Z,6.30
2018-12-01T01:36:31.947Z,6.20
2018-12-01T01:39:00.447Z,6.20
2018-12-01T01:41:29.362Z,6.20
2018-12-01T01:43:57.968Z,6.20
2018-12-01T01:46:26.483Z,6.20
2018-12-01T01:48:54.959Z,6.20
2018-12-01T01:51:23.450Z,6.20
2018-12-01T01:53:51.975Z,6.20
2018-12-01T01:56:20.477Z,6.30
2018-12-01T01:58:48.973Z,6.30
2018-12-01T02:01:17.439Z,6.30
2018-12-01T02:03:45.943Z,6.30
2018-12-01T02:06:14.408Z,6.30
2018-12-01T02:08:42.907Z,6.40
2018-12-01T02:11:11.395Z,6.40
2018-12-01T02:13:39.875Z,6.40
2018-12-01T02:16:08.367Z,6.40
2018-12-01T02:18:36.855Z,6.50
2018-12-01T02:21:06.146Z,6.40
2018-12-01T02:23:34.620Z,6.40
2018-12-01T02:26:03.130Z,6.40
2018-12-01T02:28:31.591Z,6.30
2018-12-01T02:31:00.098Z,6.40
2018-12-01T02:33:28.560Z,6.40
2018-12-01T02:35:57.079Z,6.40
2018-12-01T02:38:25.615Z,6.40
2018-12-01T02:40:54.125Z,6.40
2018-12-01T02:43:22.699Z,6.50
2018-12-01T02:46:02.383Z,6.40
2018-12-01T02:48:30.850Z,6.50
2018-12-01T02:50:59.327Z,6.50
2018-12-01T02:53:27.803Z,6.50
2018-12-01T02:55:56.291Z,6.40
2018-12-01T02:58:24.756Z,6.40
2018-12-01T03:00:53.256Z,6.40
2018-12-01T03:03:21.727Z,6.40
2018-12-01T03:05:50.215Z,6.40
2018-12-01T03:08:18.674Z,6.40
2018-12-01T03:10:47.187Z,6.30
2018-12-01T03:13:15.646Z,6.30
2018-12-01T03:15:44.185Z,6.20
2018-12-01T03:18:13.686Z,6.20
2018-12-01T03:20:41.168Z,6.20
2018-12-01T03:23:09.640Z,6.20
2018-12-01T03:25:38.114Z,6.20
2018-12-01T03:28:06.617Z,6.20
2018-12-01T03:30:35.066Z,6.30
2018-12-01T03:33:03.491Z,6.40
2018-12-01T03:35:31.926Z,6.30
2018-12-01T03:38:00.358Z,6.30
2018-12-01T03:40:33.017Z,6.40
2018-12-01T03:43:01.468Z,6.40
2018-12-01T03:45:29.911Z,6.30
2018-12-01T03:47:58.351Z,6.30
2018-12-01T03:50:26.818Z,6.30
2018-12-01T03:52:56.593Z,6.30
2018-12-01T03:55:30.260Z,6.30
2018-12-01T03:57:58.811Z,6.30
2018-12-01T04:00:29.126Z,6.30
2018-12-01T04:02:58.268Z,6.30
2018-12-01T04:05:26.791Z,6.20
2018-12-01T04:07:55.223Z,6.30
2018-12-01T04:10:23.682Z,6.30
2018-12-01T04:12:52.270Z,6.30
2018-12-01T04:15:20.719Z,6.30
2018-12-01T04:17:49.173Z,6.30
2018-12-01T04:20:17.609Z,6.40
2018-12-01T04:22:46.100Z,6.40
2018-12-01T04:25:14.560Z,6.40
2018-12-01T04:27:43.018Z,6.40
2018-12-01T04:30:15.907Z,6.40
2018-12-01T04:32:44.352Z,6.40
2018-12-01T04:35:17.830Z,6.30
2018-12-01T04:37:47.347Z,6.30
2018-12-01T04:40:15.811Z,6.30
2018-12-01T04:42:45.255Z,6.30
2018-12-01T04:45:13.724Z,6.30
2018-12-01T04:47:42.238Z,6.30
2018-12-01T04:50:12.001Z,6.30
2018-12-01T04:52:40.459Z,6.30
2018-12-01T04:55:11.935Z,6.30
2018-12-01T04:57:40.393Z,6.30
2018-12-01T05:00:12.298Z,6.40
2018-12-01T05:02:40.766Z,6.40
2018-12-01T05:05:14.866Z,6.40
2018-12-01T05:07:43.351Z,6.40
2018-12-01T05:10:12.958Z,6.40
2018-12-01T05:12:41.402Z,6.40
2018-12-01T05:15:11.860Z,6.50
2018-12-01T05:17:40.309Z,6.50
2018-12-01T05:20:13.131Z,6.50
2018-12-01T05:22:41.618Z,6.50
2018-12-01T05:25:10.750Z,6.50
2018-12-01T05:27:39.283Z,6.50
2018-12-01T05:30:08.550Z,6.40
2018-12-01T05:32:37.914Z,6.40
2018-12-01T05:35:14.081Z,6.30
2018-12-01T05:37:42.582Z,6.30
2018-12-01T05:40:12.081Z,6.30
2018-12-01T05:42:40.609Z,6.20
2018-12-01T05:45:16.792Z,6.20
2018-12-01T05:47:45.300Z,6.20
2018-12-01T05:50:14.806Z,6.20
2018-12-01T05:52:43.287Z,6.20
2018-12-01T05:55:12.499Z,6.10
2018-12-01T05:57:41.013Z,6.10
2018-12-01T06:00:13.810Z,6.00
2018-12-01T06:02:42.304Z,6.00
2018-12-01T06:05:11.535Z,6.00
2018-12-01T06:07:40.921Z,5.90
2018-12-01T06:10:19.148Z,5.90
2018-12-01T06:12:48.334Z,5.90
2018-12-01T06:15:17.650Z,6.00
2018-12-01T06:17:46.192Z,6.00
2018-12-01T06:20:18.773Z,6.00
2018-12-01T06:22:47.261Z,6.00
2018-12-01T06:25:16.879Z,5.90
2018-12-01T06:27:45.442Z,6.00
2018-12-01T06:30:15.117Z,6.10
2018-12-01T06:32:43.730Z,6.10
2018-12-01T06:35:12.235Z,6.10
2018-12-01T06:37:40.835Z,6.00
2018-12-01T06:40:12.113Z,5.80
2018-12-01T06:42:40.130Z,5.80
2018-12-01T06:45:10.022Z,5.80
2018-12-01T06:47:38.554Z,5.90
2018-12-01T06:50:16.456Z,6.10
2018-12-01T06:52:45.002Z,6.00
2018-12-01T06:55:14.398Z,5.90
2018-12-01T06:57:43.828Z,5.90
2018-12-01T07:00:13.545Z,5.80
2018-12-01T07:02:42.632Z,5.80
2018-12-01T07:05:12.012Z,5.90
2018-12-01T07:07:40.491Z,5.90
2018-12-01T07:10:11.252Z,5.80
2018-12-01T07:12:40.446Z,5.80
2018-12-01T07:15:11.075Z,5.90
2018-12-01T07:17:39.570Z,6.00
2018-12-01T07:20:09.063Z,6.00
2018-12-01T07:22:37.553Z,6.00
2018-12-01T07:25:06.787Z,6.00
2018-12-01T07:27:35.303Z,6.00
2018-12-01T07:30:04.288Z,5.90
2018-12-01T07:32:32.724Z,6.00
2018-12-01T07:35:01.167Z,6.00
2018-12-01T07:37:29.623Z,6.00
2018-12-01T07:39:58.045Z,6.00
2018-12-01T07:42:26.500Z,6.10
2018-12-01T07:44:54.917Z,6.10
2018-12-01T07:47:23.354Z,6.20
2018-12-01T07:49:51.791Z,6.20
2018-12-01T07:52:20.251Z,6.20
2018-12-01T07:54:48.668Z,6.30
2018-12-01T07:57:17.099Z,6.30
2018-12-01T07:59:45.530Z,6.40
2018-12-01T08:02:13.951Z,6.30
2018-12-01T08:04:42.386Z,6.30
2018-12-01T08:07:10.830Z,6.30
2018-12-01T08:09:39.285Z,6.30
2018-12-01T08:12:07.715Z,6.30
2018-12-01T08:14:36.146Z,6.30
2018-12-01T08:17:04.846Z,6.30
2018-12-01T08:19:33.289Z,6.40
2018-12-01T08:22:01.721Z,6.40
2018-12-01T08:24:30.151Z,6.60
2018-12-01T08:26:58.592Z,6.70
2018-12-01T08:29:27.071Z,6.70
2018-12-01T08:31:55.578Z,6.70
2018-12-01T08:34:24.014Z,6.70
2018-12-01T08:36:52.450Z,6.70
2018-12-01T08:39:20.919Z,6.70
2018-12-01T08:41:49.351Z,6.80
2018-12-01T08:44:17.791Z,6.90
2018-12-01T08:46:46.208Z,6.90
2018-12-01T08:49:14.674Z,6.90
2018-12-01T08:51:43.118Z,6.90
2018-12-01T08:54:11.569Z,6.90
2018-12-01T08:56:39.986Z,6.90
2018-12-01T08:59:08.451Z,6.80
2018-12-01T09:01:36.886Z,6.80
2018-12-01T09:04:05.346Z,6.70
2018-12-01T09:06:33.775Z,6.70
2018-12-01T09:09:02.206Z,6.70
2018-12-01T09:11:30.626Z,6.70
2018-12-01T09:13:59.072Z,6.80
2018-12-01T09:16:27.503Z,6.90
2018-12-01T09:18:55.942Z,6.90
2018-12-01T09:21:24.434Z,7.00
2018-12-01T09:23:52.885Z,7.10
2018-12-01T09:26:21.316Z,7.10
2018-12-01T09:28:49.771Z,7.10
2018-12-01T09:31:18.268Z,7.10
2018-12-01T09:33:46.787Z,7.10
2018-12-01T09:36:15.243Z,7.20
2018-12-01T09:38:43.743Z,7.20
2018-12-01T09:41:12.225Z,7.20
2018-12-01T09:43:41.557Z,7.20
2018-12-01T09:46:10.054Z,7.20
2018-12-01T09:48:38.548Z,7.20
2018-12-01T09:51:07.114Z,7.30
2018-12-01T09:53:35.623Z,7.40
2018-12-01T09:56:04.138Z,7.50
2018-12-01T09:58:32.631Z,7.50
2018-12-01T10:01:02.659Z,7.70
2018-12-01T10:03:30.044Z,7.80
2018-12-01T10:05:58.517Z,7.90
2018-12-01T10:08:27.044Z,8.10
2018-12-01T10:10:55.526Z,8.20
2018-12-01T10:13:23.960Z,8.20
2018-12-01T10:15:52.387Z,8.30
2018-12-01T10:18:20.844Z,8.30
2018-12-01T10:20:49.299Z,8.40
2018-12-01T10:23:17.756Z,8.40
2018-12-01T10:25:46.208Z,8.40
2018-12-01T10:28:14.644Z,8.40
2018-12-01T10:30:43.107Z,8.40
2018-12-01T10:33:11.551Z,8.40
2018-12-01T10:35:39.988Z,8.50
2018-12-01T10:38:10.362Z,8.50
2018-12-01T10:40:38.828Z,8.60
2018-12-01T10:43:07.795Z,8.70
2018-12-01T10:45:36.247Z,8.80
2018-12-01T10:48:05.112Z,8.80
2018-12-01T10:50:33.585Z,8.90
2018-12-01T10:53:02.034Z,9.00
2018-12-01T10:55:32.495Z,9.10
2018-12-01T10:58:02.382Z,9.20
2018-12-01T11:00:36.783Z,9.30
2018-12-01T11:04:09.814Z,9.40
2018-12-01T11:06:38.240Z,9.50
2018-12-01T11:09:08.547Z,9.60
2018-12-01T11:11:36.966Z,9.60
2018-12-01T11:14:05.466Z,9.60
2018-12-01T11:16:33.902Z,9.50
2018-12-01T11:19:02.350Z,9.40
2018-12-01T11:21:30.822Z,9.50
2018-12-01T11:23:59.330Z,9.50
2018-12-01T11:26:27.783Z,9.50
2018-12-01T11:28:56.327Z,9.60
2018-12-01T11:31:24.866Z,9.60
2018-12-01T11:33:53.402Z,9.60
2018-12-01T11:36:21.922Z,9.50
2018-12-01T11:38:50.393Z,9.50
2018-12-01T11:41:18.887Z,9.60
2018-12-01T11:43:47.396Z,9.60
2018-12-01T11:46:15.911Z,9.50
2018-12-01T11:48:44.431Z,9.60
2018-12-01T11:51:12.987Z,9.70
2018-12-01T11:53:41.470Z,9.70
2018-12-01T11:56:10.685Z,9.80
2018-12-01T11:58:39.198Z,9.80
2018-12-01T12:01:07.728Z,9.90
2018-12-01T12:03:36.222Z,9.90
2018-12-01T12:06:04.767Z,9.90
2018-12-01T12:08:33.427Z,9.90
2018-12-01T12:11:01.939Z,10.00
2018-12-01T12:13:30.755Z,9.90
2018-12-01T12:15:59.339Z,9.90
2018-12-01T12:18:28.885Z,9.80
2018-12-01T12:20:56.409Z,9.70
2018-12-01T12:23:24.903Z,9.80
2018-12-01T12:25:53.414Z,9.80
2018-12-01T12:28:21.911Z,9.90
2018-12-01T12:30:50.488Z,9.90
2018-12-01T12:33:19.011Z,9.90
2018-12-01T12:35:47.482Z,10.00
2018-12-01T12:38:15.987Z,10.00
2018-12-01T12:40:44.483Z,10.10
2018-12-01T12:43:12.962Z,10.00
2018-12-01T12:45:41.431Z,10.00
2018-12-01T12:48:10.118Z,10.00
2018-12-01T12:50:38.573Z,10.10
2018-12-01T12:53:07.092Z,10.10
2018-12-01T12:55:35.594Z,10.10
2018-12-01T12:58:04.074Z,10.10
2018-12-01T13:00:32.526Z,10.20
2018-12-01T13:03:02.457Z,10.30
2018-12-01T13:05:34.430Z,10.40
2018-12-01T13:08:02.967Z,10.30
2018-12-01T13:10:31.531Z,10.30
2018-12-01T13:13:00.133Z,10.20
2018-12-01T13:15:29.059Z,10.30
2018-12-01T13:17:57.482Z,10.30
2018-12-01T13:20:26.013Z,10.30
2018-12-01T13:22:57.658Z,10.40
2018-12-01T13:25:26.095Z,10.40
2018-12-01T13:28:03.165Z,10.30
2018-12-01T13:30:37.398Z,10.30
2018-12-01T13:33:05.962Z,10.30
2018-12-01T13:35:34.443Z,10.30
2018-12-01T13:38:02.938Z,10.20
2018-12-01T13:40:31.434Z,10.20
2018-12-01T13:42:59.941Z,10.20
2018-12-01T13:45:28.441Z,10.10
2018-12-01T13:47:56.929Z,10.10
2018-12-01T13:50:25.540Z,10.10
2018-12-01T13:52:55.462Z,10.10
2018-12-01T13:55:23.914Z,10.10
2018-12-01T13:57:52.538Z,10.00
2018-12-01T14:00:24.965Z,9.90
2018-12-01T14:02:53.432Z,9.90
2018-12-01T14:05:21.991Z,9.90
2018-12-01T14:07:50.476Z,9.90
2018-12-01T14:10:20.119Z,9.80
2018-12-01T14:12:51.110Z,9.80
2018-12-01T14:15:21.660Z,9.80
2018-12-01T14:17:50.231Z,9.80
2018-12-01T14:20:19.047Z,9.80
2018-12-01T14:22:48.409Z,9.70
2018-12-01T14:25:18.915Z,9.70
2018-12-01T14:28:05.806Z,9.70
2018-12-01T14:30:35.268Z,9.70
2018-12-01T14:33:05.940Z,9.70
2018-12-01T14:35:36.138Z,9.70
2018-12-01T14:38:13.358Z,9.70
2018-12-01T14:40:44.087Z,9.80
2018-12-01T14:43:12.639Z,9.70
2018-12-01T14:45:41.850Z,9.70
2018-12-01T14:48:10.375Z,9.70
2018-12-01T14:50:38.867Z,9.60
2018-12-01T14:53:08.494Z,9.60
2018-12-01T14:55:37.070Z,9.60
2018-12-01T14:58:06.092Z,9.50
2018-12-01T15:00:34.680Z,9.50
2018-12-01T15:03:03.177Z,9.50
2018-12-01T15:05:31.622Z,9.50
2018-12-01T15:08:00.115Z,9.40
2018-12-01T15:10:28.587Z,9.40
2018-12-01T15:12:57.039Z,9.40
2018-12-01T15:15:26.384Z,9.30
2018-12-01T15:17:54.866Z,9.30
2018-12-01T15:20:24.495Z,9.30
2018-12-01T15:22:55.124Z,9.30
2018-12-01T15:25:27.457Z,9.30
2018-12-01T15:27:56.008Z,9.20
2018-12-01T15:30:25.416Z,9.20
2018-12-01T15:33:01.343Z,9.20
2018-12-01T15:35:29.838Z,9.20
2018-12-01T15:37:58.353Z,9.20
2018-12-01T15:43:06.048Z,9.10
2018-12-01T15:45:34.581Z,9.10
2018-12-01T15:48:03.018Z,9.10
2018-12-01T15:50:31.470Z,9.10
2018-12-01T15:52:59.920Z,9.20
2018-12-01T15:55:28.319Z,9.10
2018-12-01T15:57:56.743Z,9.20
2018-12-01T16:00:26.295Z,9.10
2018-12-01T16:02:54.786Z,9.10
2018-12-01T16:05:24.095Z,9.10
2018-12-01T16:07:54.570Z,9.00
2018-12-01T16:10:23.755Z,9.00
2018-12-01T16:12:57.670Z,9.00
2018-12-01T16:15:31.465Z,9.00
2018-12-01T16:17:59.906Z,9.00
2018-12-01T16:20:28.454Z,9.00
2018-12-01T16:22:56.892Z,9.00
2018-12-01T16:25:25.885Z,9.00
2018-12-01T16:27:54.328Z,8.90
2018-12-01T16:30:29.237Z,8.90
2018-12-01T16:33:00.953Z,8.80
2018-12-01T16:35:29.418Z,8.70
2018-12-01T16:37:58.593Z,8.80
2018-12-01T16:40:33.893Z,8.70
2018-12-01T16:43:03.863Z,8.70
2018-12-01T16:45:32.396Z,8.60
2018-12-01T16:48:00.961Z,8.60
2018-12-01T16:50:29.554Z,8.50
2018-12-01T16:52:58.054Z,8.40
2018-12-01T16:55:26.523Z,8.50
2018-12-01T16:57:54.959Z,8.40
2018-12-01T17:00:23.373Z,8.40
2018-12-01T17:02:53.349Z,8.40
2018-12-01T17:05:22.884Z,8.40
2018-12-01T17:07:51.409Z,8.40
2018-12-01T17:10:20.884Z,8.40
2018-12-01T17:12:53.659Z,8.30
2018-12-01T17:15:22.457Z,8.30
2018-12-01T17:17:50.883Z,8.30
2018-12-01T17:20:19.540Z,8.30
2018-12-01T17:22:54.417Z,8.30
2018-12-01T17:25:22.857Z,8.20
2018-12-01T17:27:52.193Z,8.20
2018-12-01T17:30:28.720Z,8.20
2018-12-01T17:32:58.201Z,8.20
2018-12-01T17:35:27.790Z,8.10
2018-12-01T17:37:57.494Z,8.10
2018-12-01T17:40:35.481Z,8.10
2018-12-01T17:43:04.705Z,8.10
2018-12-01T17:45:33.165Z,8.00
2018-12-01T17:48:01.587Z,8.00
2018-12-01T17:50:30.001Z,8.00
2018-12-01T17:52:58.427Z,7.90
2018-12-01T17:55:28.154Z,7.90
2018-12-01T17:57:56.621Z,7.90
2018-12-01T18:00:26.512Z,7.90
2018-12-01T18:02:56.441Z,7.90
2018-12-01T18:05:34.481Z,7.90
2018-12-01T18:08:03.185Z,7.90
2018-12-01T18:10:31.638Z,7.90
2018-12-01T18:13:00.027Z,7.90
2018-12-01T18:15:28.564Z,7.90
2018-12-01T18:17:56.960Z,7.90
2018-12-01T18:20:25.381Z,7.80
2018-12-01T18:23:00.084Z,7.80
2018-12-01T18:25:34.624Z,7.80
2018-12-01T18:28:03.088Z,7.80
2018-12-01T18:30:35.811Z,7.90
2018-12-01T18:33:11.734Z,7.80
2018-12-01T18:35:40.315Z,7.80
2018-12-01T18:38:09.748Z,7.80
2018-12-01T18:40:38.179Z,7.80
2018-12-01T18:43:07.392Z,7.80
2018-12-01T18:45:35.969Z,7.90
2018-12-01T18:48:04.421Z,7.90
2018-12-01T18:50:32.840Z,7.90
2018-12-01T18:53:02.825Z,7.90
2018-12-01T18:55:32.769Z,7.90
2018-12-01T18:58:01.267Z,8.00
2018-12-01T19:00:48.084Z,7.90
2018-12-01T19:03:16.720Z,7.90
2018-12-01T19:05:45.173Z,7.90
2018-12-01T19:08:13.573Z,7.90
2018-12-01T19:10:41.986Z,7.90
2018-12-01T19:13:10.432Z,7.90
2018-12-01T19:15:38.972Z,7.90
2018-12-01T19:18:08.142Z,7.90
2018-12-01T19:20:36.913Z,7.80
2018-12-01T19:23:06.642Z,7.90
2018-12-01T19:25:35.156Z,7.90
2018-12-01T19:28:03.685Z,7.90
2018-12-01T19:30:32.145Z,7.90
2018-12-01T19:33:07.635Z,7.90
2018-12-01T19:35:36.066Z,7.90
2018-12-01T19:38:04.505Z,7.90
2018-12-01T19:40:33.908Z,7.90
2018-12-01T19:43:02.900Z,7.90
2018-12-01T19:45:31.320Z,7.90
2018-12-01T19:47:59.786Z,7.90
2018-12-01T19:50:33.440Z,7.90
2018-12-01T19:53:01.852Z,7.90
2018-12-01T19:55:30.727Z,7.90
2018-12-01T19:57:59.737Z,7.90
2018-12-01T20:00:29.120Z,7.90
2018-12-01T20:02:59.250Z,7.90
2018-12-01T20:05:27.737Z,8.00
2018-12-01T20:07:56.197Z,7.90
2018-12-01T20:10:30.336Z,7.90
2018-12-01T20:13:03.891Z,8.00
2018-12-01T20:15:38.625Z,8.00
2018-12-01T20:18:14.450Z,8.00
2018-12-01T20:20:42.845Z,7.90
2018-12-01T20:23:11.228Z,7.90
2018-12-01T20:25:39.635Z,7.90
2018-12-01T20:28:08.033Z,7.80
2018-12-01T20:30:36.473Z,7.80
2018-12-01T20:33:04.893Z,7.80
2018-12-01T20:35:37.064Z,7.80
2018-12-01T20:38:15.216Z,7.80
2018-12-01T20:40:43.624Z,7.80
2018-12-01T20:43:12.041Z,7.80
2018-12-01T20:45:40.474Z,7.80
2018-12-01T20:48:08.885Z,7.80
2018-12-01T20:50:37.329Z,7.80
2018-12-01T20:53:06.691Z,7.80
2018-12-01T20:55:35.101Z,7.80
2018-12-01T20:58:05.261Z,7.70
2018-12-01T21:00:33.661Z,7.80
2018-12-01T21:03:02.046Z,7.70
2018-12-01T21:05:30.448Z,7.70
2018-12-01T21:08:02.268Z,7.70
2018-12-01T21:10:30.861Z,7.70
2018-12-01T21:13:00.662Z,7.70
2018-12-01T21:15:29.097Z,7.70
2018-12-01T21:17:57.523Z,7.70
2018-12-01T21:20:25.949Z,7.70
2018-12-01T21:22:54.410Z,7.70
2018-12-01T21:25:25.398Z,7.70
2018-12-01T21:27:55.053Z,7.70
2018-12-01T21:30:25.670Z,7.60
2018-12-01T21:33:01.036Z,7.70
2018-12-01T21:35:29.484Z,7.70
2018-12-01T21:37:57.937Z,7.60
2018-12-01T21:40:26.417Z,7.70
2018-12-01T21:42:54.853Z,7.60
2018-12-01T21:45:23.333Z,7.70
2018-12-01T21:47:51.812Z,7.60
2018-12-01T21:50:21.638Z,7.70
2018-12-01T21:52:52.585Z,7.70
2018-12-01T21:55:21.285Z,7.70
2018-12-01T21:57:50.358Z,7.70
2018-12-01T22:00:27.728Z,7.70
2018-12-01T22:03:03.954Z,7.70
2018-12-01T22:05:39.332Z,7.70
2018-12-01T22:08:09.461Z,7.70
2018-12-01T22:10:37.913Z,7.80
2018-12-01T22:13:06.738Z,7.80
2018-12-01T22:15:35.177Z,7.80
2018-12-01T22:18:03.772Z,7.70
2018-12-01T22:20:32.221Z,7.80
2018-12-01T22:23:00.890Z,7.80
2018-12-01T22:25:29.329Z,7.80
2018-12-01T22:27:57.782Z,7.80
2018-12-01T22:30:26.233Z,7.90
2018-12-01T22:32:58.661Z,7.90
2018-12-01T22:35:28.294Z,8.00
2018-12-01T22:37:57.600Z,8.00
2018-12-01T22:40:29.325Z,8.00
2018-12-01T22:42:59.290Z,8.00
2018-12-01T22:45:27.726Z,7.90
2018-12-01T22:47:56.433Z,8.00
2018-12-01T22:50:24.853Z,8.00
2018-12-01T22:52:54.017Z,8.10
2018-12-01T22:55:24.437Z,8.10
2018-12-01T22:57:54.257Z,8.10
2018-12-01T23:00:25.539Z,8.10
2018-12-01T23:02:53.976Z,8.10
2018-12-01T23:05:22.434Z,8.10
2018-12-01T23:07:50.868Z,8.10
2018-12-01T23:10:19.300Z,8.20
2018-12-01T23:12:47.733Z,8.10
2018-12-01T23:15:17.131Z,8.20
2018-12-01T23:17:48.497Z,8.20
2018-12-01T23:20:18.259Z,8.20
2018-12-01T23:22:46.950Z,8.20
2018-12-01T23:25:15.466Z,8.10
2018-12-01T23:27:43.944Z,8.10
2018-12-01T23:30:28.565Z,8.10
2018-12-01T23:32:59.445Z,8.10
2018-12-01T23:35:28.546Z,8.10
2018-12-01T23:37:57.056Z,8.10
2018-12-01T23:40:25.509Z,8.00
2018-12-01T23:42:54.061Z,8.10
2018-12-01T23:45:22.832Z,8.00
2018-12-01T23:47:51.366Z,8.00
2018-12-01T23:50:22.657Z,8.00
2018-12-01T23:52:55.262Z,8.00
2018-12-01T23:55:23.737Z,8.00
2018-12-01T23:57:52.233Z,8.00
